createdAt,value
2024-05-09T00:18:46.165Z,3.40
2024-05-09T00:22:51.879Z,3.03
2024-05-09T00:26:58.391Z,3.50
2024-05-09T00:31:03.930Z,2.77
2024-05-09T00:35:09.593Z,3.27
2024-05-09T00:39:15.161Z,3.40
2024-05-09T00:43:20.775Z,3.77
2024-05-09T00:47:26.758Z,3.90
2024-05-09T00:51:32.633Z,3.43
2024-05-09T00:55:39.691Z,3.73
2024-05-09T00:59:45.340Z,2.60
2024-05-09T01:03:51.496Z,2.90
2024-05-09T01:07:57.419Z,3.40
2024-05-09T01:12:03.247Z,3.30
2024-05-09T01:16:08.982Z,3.30
2024-05-09T01:20:20.189Z,3.27
2024-05-09T01:24:33.183Z,3.40
2024-05-09T01:28:38.786Z,3.30
2024-05-09T01:32:44.503Z,3.60
2024-05-09T01:36:50.117Z,3.33
2024-05-09T01:40:55.770Z,2.90
2024-05-09T01:45:01.466Z,3.23
2024-05-09T01:49:08.246Z,3.70
2024-05-09T01:53:15.431Z,3.40
2024-05-09T01:57:21.171Z,3.40
2024-05-09T02:01:26.966Z,3.40
2024-05-09T02:05:32.714Z,3.75
2024-05-09T02:09:38.329Z,4.00
2024-05-09T02:13:44.048Z,3.75
2024-05-09T02:17:49.744Z,3.60
2024-05-09T02:21:55.370Z,4.00
2024-05-09T02:26:00.976Z,3.60
2024-05-09T02:30:18.265Z,3.70
2024-05-09T02:34:28.605Z,3.80
2024-05-09T02:38:34.611Z,4.05
2024-05-09T02:42:40.177Z,3.70
2024-05-09T02:46:46.392Z,4.00
2024-05-09T02:50:52.222Z,3.60
2024-05-09T02:54:57.968Z,3.92
2024-05-09T02:59:03.656Z,3.95
2024-05-09T03:03:14.818Z,3.92
2024-05-09T03:07:21.360Z,3.90
2024-05-09T03:11:27.276Z,3.80
2024-05-09T03:15:33.184Z,3.90
2024-05-09T03:19:38.976Z,4.00
2024-05-09T03:23:45.015Z,3.90
2024-05-09T03:27:50.723Z,3.63
2024-05-09T03:31:56.490Z,3.90
2024-05-09T03:36:04.610Z,3.85
2024-05-09T03:40:17.727Z,4.05
2024-05-09T03:44:26.718Z,4.03
2024-05-09T03:48:36.155Z,4.70
2024-05-09T03:52:41.829Z,4.03
2024-05-09T03:56:47.415Z,3.88
2024-05-09T04:00:53.047Z,3.90
2024-05-09T04:04:58.722Z,4.00
2024-05-09T04:09:05.337Z,4.30
2024-05-09T04:13:11.445Z,5.20
2024-05-09T04:17:17.725Z,5.40
2024-05-09T04:21:23.332Z,4.68
2024-05-09T04:25:28.949Z,4.95
2024-05-09T04:29:37.513Z,4.80
2024-05-09T04:33:43.311Z,4.40
2024-05-09T04:37:50.166Z,4.70
2024-05-09T04:41:56.124Z,4.63
2024-05-09T04:46:01.994Z,4.32
2024-05-09T04:50:11.548Z,5.00
2024-05-09T04:58:29.161Z,5.90
2024-05-09T05:02:34.884Z,5.10
2024-05-09T05:06:40.482Z,5.40
2024-05-09T05:10:47.163Z,5.03
2024-05-09T05:14:53.475Z,5.88
2024-05-09T05:18:59.117Z,5.60
2024-05-09T05:23:08.466Z,5.80
2024-05-09T05:27:14.111Z,5.67
2024-05-09T05:31:19.694Z,7.13
2024-05-09T05:35:25.401Z,7.38
2024-05-09T05:39:31.143Z,7.82
2024-05-09T05:43:36.780Z,7.90
2024-05-09T05:47:42.590Z,7.70
2024-05-09T05:51:48.270Z,7.47
2024-05-09T05:55:53.961Z,6.40
2024-05-09T06:00:00.424Z,6.43
2024-05-09T06:04:06.091Z,6.10
2024-05-09T06:08:12.140Z,6.80
2024-05-09T06:12:18.022Z,6.40
2024-05-09T06:16:23.711Z,6.70
2024-05-09T06:20:35.764Z,6.50
2024-05-09T06:24:43.898Z,6.40
2024-05-09T06:28:49.527Z,6.20
2024-05-09T06:32:55.303Z,6.40
2024-05-09T06:37:01.038Z,5.83
2024-05-09T06:41:07.002Z,5.47
2024-05-09T06:45:13.811Z,5.23
2024-05-09T06:49:19.619Z,4.80
2024-05-09T06:53:25.508Z,5.37
2024-05-09T07:34:36.452Z,2.57
2024-05-09T07:38:42.099Z,3.50
2024-05-09T07:42:47.810Z,2.57
2024-05-09T07:48:13.671Z,3.17
2024-05-09T07:55:27.745Z,3.40
2024-05-09T07:59:37.026Z,3.03
2024-05-09T08:07:49.298Z,3.10
2024-05-09T08:16:00.742Z,3.63
2024-05-09T08:24:14.319Z,3.60
2024-05-09T08:28:20.043Z,3.40
2024-05-09T08:40:39.726Z,3.83
2024-05-09T08:44:45.643Z,3.10
2024-05-09T08:52:58.919Z,4.23
2024-05-09T09:05:21.407Z,3.30
2024-05-09T09:09:28.156Z,3.10
2024-05-09T09:13:33.790Z,3.50
2024-05-09T09:17:39.607Z,2.93
2024-05-09T09:21:45.812Z,3.60
2024-05-09T09:25:52.012Z,3.57
2024-05-09T09:29:57.814Z,3.37
2024-05-09T09:34:09.237Z,3.63
2024-05-09T09:38:19.067Z,4.00
2024-05-09T09:42:34.410Z,3.20
2024-05-09T09:46:42.051Z,3.50
2024-05-09T09:50:49.305Z,4.00
2024-05-09T09:54:56.509Z,4.53
2024-05-09T09:59:05.323Z,3.60
2024-05-09T10:03:10.956Z,3.03
2024-05-09T10:07:18.947Z,2.90
2024-05-09T10:11:25.126Z,3.13
2024-05-09T10:15:31.963Z,3.40
2024-05-09T10:19:37.565Z,3.00
2024-05-09T10:23:56.845Z,3.10
2024-05-09T10:28:03.243Z,3.47
2024-05-09T10:32:09.566Z,3.23
2024-05-09T10:36:27.067Z,3.30
2024-05-09T10:40:32.744Z,4.13
2024-05-09T10:44:38.933Z,3.60
2024-05-09T10:48:45.647Z,3.50
2024-05-09T10:52:53.796Z,3.77
2024-05-09T10:56:59.437Z,2.70
2024-05-09T11:01:07.298Z,3.30
2024-05-09T11:05:13.608Z,3.30
2024-05-09T11:09:19.373Z,2.80
2024-05-09T11:13:32.390Z,3.37
2024-05-09T11:17:38.563Z,3.30
2024-05-09T11:21:44.276Z,3.27
2024-05-09T11:25:58.176Z,3.60
2024-05-09T11:30:04.419Z,3.57
2024-05-09T11:34:11.242Z,3.13
2024-05-09T11:38:16.874Z,2.90
2024-05-09T11:42:22.587Z,3.73
2024-05-09T11:46:29.308Z,3.53
2024-05-09T11:50:36.116Z,3.23
2024-05-09T11:54:42.055Z,3.23
2024-05-09T11:58:47.754Z,4.50
2024-05-09T12:02:54.334Z,2.80
2024-05-09T12:07:00.125Z,2.97
2024-05-09T12:11:06.127Z,2.93
2024-05-09T12:15:12.701Z,2.40
2024-05-09T12:19:18.426Z,2.10
2024-05-09T12:23:24.116Z,2.10
2024-05-09T12:27:29.762Z,2.20
2024-05-09T12:31:35.469Z,2.40
2024-05-09T12:35:44.362Z,2.60
2024-05-09T12:39:52.322Z,2.90
2024-05-09T12:43:57.903Z,2.40
2024-05-09T12:48:06.928Z,3.20
2024-05-09T12:52:12.996Z,2.60
2024-05-09T12:56:18.693Z,2.40
2024-05-09T13:00:31.402Z,2.93
2024-05-09T13:04:39.598Z,3.07
2024-05-09T13:08:45.474Z,2.50
2024-05-09T13:12:51.112Z,3.23
2024-05-09T13:16:56.764Z,3.30
2024-05-09T13:21:02.662Z,2.83
2024-05-09T13:25:08.520Z,3.13
2024-05-09T13:29:14.198Z,3.50
2024-05-09T13:33:20.042Z,3.27
2024-05-09T13:37:25.910Z,3.10
2024-05-09T13:41:31.492Z,3.63
2024-05-09T13:45:37.188Z,3.13
2024-05-09T13:49:43.070Z,3.17
2024-05-09T13:53:48.691Z,3.27
2024-05-09T13:57:54.500Z,3.30
2024-05-09T14:02:00.147Z,3.00
2024-05-09T14:06:07.588Z,3.30
2024-05-09T14:10:22.658Z,3.60
2024-05-09T14:14:32.025Z,3.43
2024-05-09T14:18:37.916Z,3.90
2024-05-09T14:22:43.524Z,3.47
2024-05-09T14:26:49.264Z,3.33
2024-05-09T14:30:56.789Z,3.00
2024-05-09T14:35:02.704Z,3.70
2024-05-09T14:39:08.374Z,3.40
2024-05-09T14:43:15.881Z,3.20
2024-05-09T14:47:22.108Z,5.50
2024-05-09T14:51:27.770Z,3.40
2024-05-09T14:55:35.724Z,3.83
2024-05-09T14:59:41.762Z,3.57
2024-05-09T15:03:47.475Z,3.00
2024-05-09T15:07:53.161Z,3.63
2024-05-09T15:11:58.779Z,3.70
2024-05-09T15:16:04.665Z,3.70
2024-05-09T15:20:16.773Z,3.00
2024-05-09T15:24:23.097Z,3.17
2024-05-09T15:28:28.950Z,3.00
2024-05-09T15:32:35.037Z,2.83
2024-05-09T15:36:43.067Z,2.60
2024-05-09T15:40:49.064Z,4.90
2024-05-09T15:44:54.760Z,2.93
2024-05-09T15:49:00.689Z,3.07
2024-05-09T15:53:07.580Z,3.37
2024-05-09T15:57:13.872Z,3.30
2024-05-09T16:01:19.512Z,3.90
2024-05-09T16:05:25.352Z,4.00
2024-05-09T16:09:31.427Z,3.23
2024-05-09T16:13:37.279Z,3.50
2024-05-09T16:17:42.992Z,3.33
2024-05-09T16:21:48.594Z,3.40
2024-05-09T16:25:54.468Z,3.67
2024-05-09T16:30:04.143Z,4.67
2024-05-09T16:34:12.678Z,3.57
2024-05-09T16:38:19.225Z,4.50
2024-05-09T16:42:24.775Z,4.13
2024-05-09T16:46:31.921Z,4.67
2024-05-09T16:50:38.067Z,4.30
2024-05-09T16:54:43.718Z,4.33
2024-05-09T16:58:49.659Z,3.60
2024-05-09T17:02:55.236Z,4.20
2024-05-09T17:07:00.968Z,4.67
2024-05-09T17:11:06.721Z,4.00
2024-05-09T17:15:12.682Z,4.73
2024-05-09T17:19:18.556Z,3.90
2024-05-09T17:23:24.279Z,3.83
2024-05-09T17:27:29.929Z,4.77
2024-05-09T17:31:35.628Z,4.40
2024-05-09T17:35:41.769Z,4.80
2024-05-09T17:39:47.554Z,4.50
2024-05-09T17:43:53.247Z,5.60
2024-05-09T17:47:59.193Z,5.33
2024-05-09T17:52:05.530Z,5.77
2024-05-09T17:56:11.270Z,5.67
2024-05-09T18:00:24.743Z,4.20
2024-05-09T18:04:39.678Z,5.33
2024-05-09T18:08:45.343Z,5.50
2024-05-09T18:12:51.029Z,5.47
2024-05-09T18:16:56.936Z,5.33
2024-05-09T18:21:02.534Z,5.73
2024-05-09T18:25:08.331Z,5.37
2024-05-09T18:29:14.065Z,5.60
2024-05-09T18:33:20.472Z,5.10
2024-05-09T18:37:26.785Z,4.57
2024-05-09T18:41:32.433Z,5.57
2024-05-09T18:45:39.015Z,5.07
2024-05-09T18:49:45.027Z,4.50
2024-05-09T18:53:52.419Z,5.10
2024-05-09T18:57:58.074Z,5.07
2024-05-09T19:02:03.997Z,5.13
2024-05-09T19:06:09.794Z,4.60
2024-05-09T19:10:22.488Z,4.60
2024-05-09T19:14:31.572Z,4.80
2024-05-09T19:18:37.987Z,4.23
2024-05-09T19:22:43.857Z,4.80
2024-05-09T19:26:49.528Z,3.80
2024-05-09T19:35:00.791Z,4.28
2024-05-09T19:39:06.924Z,4.13
2024-05-09T19:43:12.622Z,3.60
2024-05-09T19:47:18.344Z,3.90
2024-05-09T19:51:24.063Z,4.27
2024-05-09T19:55:29.628Z,4.67
2024-05-09T19:59:35.215Z,4.83
2024-05-09T20:03:40.954Z,4.20
2024-05-09T20:07:46.629Z,3.97
2024-05-09T20:11:52.279Z,4.17
2024-05-09T20:15:57.933Z,4.47
2024-05-09T20:20:05.896Z,4.47
2024-05-09T20:24:12.943Z,4.97
2024-05-09T20:28:18.579Z,5.00
2024-05-09T20:32:24.237Z,5.00
2024-05-09T20:36:29.971Z,4.60
2024-05-09T20:40:38.499Z,4.37
2024-05-09T20:44:45.642Z,4.87
2024-05-09T20:48:51.491Z,4.47
2024-05-09T20:52:57.214Z,4.77
2024-05-09T20:57:03.056Z,3.73
2024-05-09T21:01:08.801Z,4.00
2024-05-09T21:05:14.726Z,4.43
2024-05-09T21:09:20.404Z,4.30
2024-05-09T21:13:26.224Z,5.00
2024-05-09T21:17:31.845Z,4.80
2024-05-09T21:21:43.634Z,5.50
2024-05-09T21:25:49.316Z,5.27
2024-05-09T21:29:54.912Z,5.23
2024-05-09T21:34:01.513Z,4.67
2024-05-09T21:38:07.698Z,4.77
2024-05-09T21:42:13.507Z,4.50
2024-05-09T21:46:19.611Z,4.53
2024-05-09T21:50:32.371Z,4.23
2024-05-09T21:54:44.796Z,4.27
2024-05-09T21:58:50.375Z,4.30
2024-05-09T22:02:56.080Z,4.67
2024-05-09T22:07:01.882Z,5.40
2024-05-09T22:11:07.578Z,5.03
2024-05-09T22:15:13.366Z,5.90
2024-05-09T22:19:19.087Z,5.80
2024-05-09T22:23:24.727Z,6.70
2024-05-09T22:27:30.289Z,5.00
2024-05-09T22:31:35.894Z,5.60
2024-05-09T23:08:27.590Z,6.07
2024-05-09T23:12:33.211Z,5.93
2024-05-09T23:16:38.811Z,5.87
2024-05-09T23:20:44.472Z,5.90
2024-05-09T23:28:55.496Z,6.60
2024-05-09T23:33:01.303Z,6.80
2024-05-09T23:37:07.173Z,7.87
2024-05-09T23:41:12.812Z,6.73
2024-05-09T23:45:18.368Z,6.83
2024-05-09T23:49:23.965Z,7.13
2024-05-09T23:53:29.577Z,6.37
2024-05-09T23:57:35.198Z,6.23
